Time;durP1;ratioP1;P1;durP2;ratioP2;P2;SDS_P1;SDS_P2;PMS_P1;PMS_P2;Temp;Humidity;BMP_temperature;BMP_pressure;BME280_temperature;BME280_humidity;BME280_pressure;Samples;Min_cycle;Max_cycle;Signal;HPM_P1;HPM_P2
2023/12/03 00:02:12;;;;;;;;;;;;;;;22.77;29.32;101758.19;5064644;28;19913;-48
2023/12/03 00:04:37;;;;;;;;;;;;;;;22.75;29.57;101754.84;5063299;28;20632;-44
2023/12/03 00:07:03;;;;;;;;;;;;;;;22.75;29.44;101755.69;5046634;28;19920;-50
2023/12/03 00:09:28;;;;;;;;;;;;;;;22.76;29.27;101760.06;5064278;28;19913;-50
2023/12/03 00:11:53;;;;;;;;;;;;;;;22.79;29.24;101756.19;5064529;28;19972;-48
2023/12/03 00:14:18;;;;;;;;;;;;;;;22.79;29.26;101757.03;5063629;28;19934;-48
2023/12/03 00:16:43;;;;;;;;;;;;;;;22.78;29.44;101757.19;5064089;28;19935;-46
2023/12/03 00:19:09;;;;;;;;;;;;;;;22.78;29.18;101755.34;5064591;28;19913;-45
2023/12/03 00:21:34;;;;;;;;;;;;;;;22.78;29.01;101758.03;5064281;28;19921;-45
2023/12/03 00:23:59;;;;;;;;;;;;;;;22.79;29.08;101758.88;5063357;28;19917;-45
2023/12/03 00:26:24;;;;;;;;;;;;;;;22.81;28.94;101759.53;5064282;28;19980;-49
2023/12/03 00:28:49;;;;;;;;;;;;;;;22.78;28.93;101754.50;5063896;28;19923;-49
2023/12/03 00:31:14;;;;;;;;;;;;;;;22.76;29.02;101753.81;5064351;28;19928;-48
2023/12/03 00:33:40;;;;;;;;;;;;;;;22.74;29.07;101755.88;5063666;28;19917;-48
2023/12/03 00:36:05;;;;;;;;;;;;;;;22.74;29.28;101754.00;5063789;28;19923;-46
2023/12/03 00:38:30;;;;;;;;;;;;;;;22.71;29.34;101754.31;5064117;28;19916;-48
2023/12/03 00:40:55;;;;;;;;;;;;;;;22.74;29.14;101747.72;5064018;28;19913;-46
2023/12/03 00:43:21;;;;;;;;;;;;;;;22.71;29.13;101752.47;5063425;28;19916;-47
2023/12/03 00:45:46;;;;;;;;;;;;;;;22.69;29.33;101757.22;5063912;28;19935;-47
2023/12/03 00:48:11;;;;;;;;;;;;;;;22.71;29.20;101757.03;5063763;28;19976;-48
2023/12/03 00:50:37;;;;;;;;;;;;;;;22.69;29.44;101759.94;5063328;28;19923;-49
2023/12/03 00:53:02;;;;;;;;;;;;;;;22.69;29.21;101759.94;5063704;28;20004;-48
2023/12/03 00:55:27;;;;;;;;;;;;;;;22.66;29.25;101760.28;5063100;28;20035;-48
2023/12/03 00:57:52;;;;;;;;;;;;;;;22.67;29.11;101748.41;5063597;28;19919;-44
2023/12/03 01:00:17;;;;;;;;;;;;;;;22.68;29.31;101751.97;5063818;28;20256;-47
2023/12/03 01:02:42;;;;;;;;;;;;;;;22.64;29.17;101750.59;5063796;28;19912;-46
2023/12/03 01:05:08;;;;;;;;;;;;;;;22.61;29.19;101761.81;5063140;28;19923;-49
2023/12/03 01:07:33;;;;;;;;;;;;;;;22.60;29.08;101749.25;5063660;28;19913;-46
2023/12/03 01:09:58;;;;;;;;;;;;;;;22.59;29.09;101759.25;5063977;28;19919;-45
2023/12/03 01:12:23;;;;;;;;;;;;;;;22.59;29.27;101761.13;5063446;28;19923;-45
2023/12/03 01:14:48;;;;;;;;;;;;;;;22.58;29.19;101757.56;5063421;28;19916;-47
2023/12/03 01:17:14;;;;;;;;;;;;;;;22.57;29.09;101763.19;5063855;28;19912;-47
2023/12/03 01:19:39;;;;;;;;;;;;;;;22.54;29.34;101767.06;5063517;28;19955;-47
2023/12/03 01:22:04;;;;;;;;;;;;;;;22.51;29.38;101769.28;5063354;28;19992;-46
2023/12/03 01:24:29;;;;;;;;;;;;;;;22.49;29.39;101774.88;5063079;28;19936;-47
2023/12/03 01:26:55;;;;;;;;;;;;;;;22.49;29.41;101776.75;5063447;28;19913;-45
2023/12/03 01:29:20;;;;;;;;;;;;;;;22.51;29.43;101772.81;5045181;28;19917;-47
2023/12/03 01:31:45;;;;;;;;;;;;;;;22.49;29.33;101769.47;5063383;28;20276;-45
2023/12/03 01:34:10;;;;;;;;;;;;;;;22.52;29.29;101781.81;5062606;28;19917;-47
2023/12/03 01:36:36;;;;;;;;;;;;;;;22.52;29.34;101774.53;5063230;28;19967;-45
2023/12/03 01:39:01;;;;;;;;;;;;;;;22.48;29.41;101785.91;5063077;28;19923;-49
2023/12/03 01:41:26;;;;;;;;;;;;;;;22.48;29.60;101783.19;5063446;28;19935;-50
2023/12/03 01:43:52;;;;;;;;;;;;;;;22.48;29.59;101794.88;5062780;28;19947;-47
2023/12/03 01:46:18;;;;;;;;;;;;;;;22.46;29.53;101792.31;5063371;28;19927;-47
2023/12/03 01:48:43;;;;;;;;;;;;;;;22.46;29.54;101799.59;5063290;28;19913;-48
2023/12/03 01:51:09;;;;;;;;;;;;;;;22.48;29.64;101802.16;5063574;28;20023;-46
2023/12/03 01:53:34;;;;;;;;;;;;;;;22.49;29.59;101814.69;5044863;28;20379;-47
2023/12/03 01:55:59;;;;;;;;;;;;;;;22.50;29.30;101816.38;5045457;28;19919;-49
2023/12/03 01:58:24;;;;;;;;;;;;;;;22.50;29.41;101822.63;5045005;28;19951;-47
2023/12/03 02:00:50;;;;;;;;;;;;;;;22.53;29.17;101824.16;5063700;28;19923;-48
2023/12/03 02:03:15;;;;;;;;;;;;;;;22.51;29.45;101818.91;5066556;28;19917;-46
2023/12/03 02:05:40;;;;;;;;;;;;;;;22.49;29.39;101829.06;5062977;28;20318;-49
2023/12/03 02:08:05;;;;;;;;;;;;;;;22.51;29.10;101823.47;5066615;28;19917;-48
2023/12/03 02:10:30;;;;;;;;;;;;;;;22.48;29.18;101829.25;5067131;28;19981;-46
2023/12/03 02:12:57;;;;;;;;;;;;;;;22.48;29.27;101826.53;5066207;28;19917;-46
2023/12/03 02:15:23;;;;;;;;;;;;;;;22.48;29.22;101827.38;5049191;28;19971;-44
2023/12/03 02:17:48;;;;;;;;;;;;;;;22.50;29.27;101838.88;5066900;28;19913;-47
2023/12/03 02:20:13;;;;;;;;;;;;;;;22.48;29.25;101831.97;5066012;28;19966;-49
2023/12/03 02:22:45;;;;;;;;;;;;;;;22.48;29.19;101829.25;5066629;28;19939;-49
2023/12/03 02:25:11;;;;;;;;;;;;;;;22.49;29.07;101831.78;5048374;28;20035;-51
2023/12/03 02:27:36;;;;;;;;;;;;;;;22.47;29.35;101831.09;5066152;28;20406;-53
2023/12/03 02:30:01;;;;;;;;;;;;;;;22.44;29.33;101829.59;5066682;28;19976;-49
2023/12/03 02:32:27;;;;;;;;;;;;;;;22.43;29.29;101830.63;5066409;28;19920;-47
2023/12/03 02:34:52;;;;;;;;;;;;;;;22.42;29.31;101833.47;5065633;28;19917;-47
2023/12/03 02:37:17;;;;;;;;;;;;;;;22.41;29.31;101832.63;5066225;28;19917;-51
2023/12/03 02:39:42;;;;;;;;;;;;;;;22.42;29.41;101837.03;5066066;28;19922;-48
2023/12/03 02:42:07;;;;;;;;;;;;;;;22.41;29.37;101835.34;5063985;28;19964;-51
2023/12/03 02:44:32;;;;;;;;;;;;;;;22.41;29.20;101839.91;5065584;28;19928;-49
2023/12/03 02:46:58;;;;;;;;;;;;;;;22.41;29.13;101838.03;5066074;28;19920;-50
2023/12/03 02:49:23;;;;;;;;;;;;;;;22.42;29.20;101839.72;5066322;28;19913;-51
2023/12/03 02:51:48;;;;;;;;;;;;;;;22.41;29.55;101834.50;5066338;28;19912;-49
2023/12/03 02:54:13;;;;;;;;;;;;;;;22.41;29.49;101829.91;5065615;28;19917;-50
2023/12/03 02:56:38;;;;;;;;;;;;;;;22.43;29.17;101833.31;5066535;28;19919;-50
2023/12/03 02:59:03;;;;;;;;;;;;;;;22.38;29.45;101830.25;5065566;28;19964;-50
2023/12/03 03:01:29;;;;;;;;;;;;;;;22.39;29.44;101817.56;5066100;28;19916;-51
2023/12/03 03:03:54;;;;;;;;;;;;;;;22.41;29.29;101827.22;5065746;28;19920;-49
2023/12/03 03:06:19;;;;;;;;;;;;;;;22.39;29.59;101820.28;5065552;28;20417;-46
2023/12/03 03:08:44;;;;;;;;;;;;;;;22.35;29.63;101822.47;5064845;28;19939;-50
2023/12/03 03:11:10;;;;;;;;;;;;;;;22.31;29.39;101821.13;5066155;28;19917;-47
2023/12/03 03:13:35;;;;;;;;;;;;;;;22.32;29.63;101825.53;5064214;28;20023;-47
2023/12/03 03:16:00;;;;;;;;;;;;;;;22.34;29.29;101822.63;5066012;28;20004;-50
2023/12/03 03:18:25;;;;;;;;;;;;;;;22.34;29.52;101826.19;5065560;28;19921;-50
2023/12/03 03:20:50;;;;;;;;;;;;;;;22.31;29.36;101823.84;5065656;28;19921;-48
2023/12/03 03:23:16;;;;;;;;;;;;;;;22.29;29.60;101825.00;5065283;28;19912;-47
2023/12/03 03:25:41;;;;;;;;;;;;;;;22.27;29.56;101821.63;5064804;28;19917;-48
2023/12/03 03:28:06;;;;;;;;;;;;;;;22.25;29.72;101818.22;5064552;28;19930;-50
2023/12/03 03:30:31;;;;;;;;;;;;;;;22.22;29.69;101816.72;5065578;28;19913;-48
2023/12/03 03:32:56;;;;;;;;;;;;;;;22.17;29.89;101817.22;5065451;28;19961;-47
2023/12/03 03:35:21;;;;;;;;;;;;;;;22.15;29.60;101815.69;5063299;28;19963;-48
2023/12/03 03:37:47;;;;;;;;;;;;;;;22.11;30.03;101825.97;5064924;28;20738;-49
2023/12/03 03:40:12;;;;;;;;;;;;;;;22.10;30.09;101821.59;5047210;28;19912;-50
2023/12/03 03:42:37;;;;;;;;;;;;;;;22.09;29.96;101816.31;5046788;28;19927;-48
2023/12/03 03:45:02;;;;;;;;;;;;;;;22.10;29.96;101815.31;5065011;28;19924;-48
2023/12/03 03:47:28;;;;;;;;;;;;;;;22.10;30.13;101821.59;5065010;28;19920;-47
2023/12/03 03:49:53;;;;;;;;;;;;;;;22.12;29.71;101819.56;5065480;28;19920;-46
2023/12/03 03:52:18;;;;;;;;;;;;;;;22.13;29.97;101828.53;5065475;28;19917;-51
2023/12/03 03:54:43;;;;;;;;;;;;;;;22.13;30.01;101833.97;5064792;28;19923;-49
2023/12/03 03:57:08;;;;;;;;;;;;;;;22.12;29.67;101829.53;5065308;28;19913;-47
2023/12/03 03:59:34;;;;;;;;;;;;;;;22.13;29.63;101836.66;5064414;28;19917;-48
2023/12/03 04:01:59;;;;;;;;;;;;;;;22.11;29.98;101836.81;5065231;28;19913;-47
2023/12/03 04:04:24;;;;;;;;;;;;;;;22.10;29.91;101839.69;5064040;28;19951;-50
2023/12/03 04:06:50;;;;;;;;;;;;;;;22.09;29.97;101844.28;5064489;28;19938;-48
2023/12/03 04:09:15;;;;;;;;;;;;;;;22.09;29.97;101844.28;5064719;28;19917;-48
2023/12/03 04:11:40;;;;;;;;;;;;;;;22.10;29.77;101832.41;5065109;28;20431;-48
2023/12/03 04:14:07;;;;;;;;;;;;;;;22.10;29.85;101848.66;5062557;28;19987;-50
2023/12/03 04:16:32;;;;;;;;;;;;;;;22.06;29.91;101846.47;5065028;28;19913;-47
2023/12/03 04:18:57;;;;;;;;;;;;;;;22.01;30.20;101838.00;5064339;28;19947;-45
2023/12/03 04:21:22;;;;;;;;;;;;;;;21.99;30.30;101845.44;5064526;28;19913;-44
2023/12/03 04:23:47;;;;;;;;;;;;;;;21.95;29.92;101851.16;5062378;28;19924;-46
2023/12/03 04:26:14;;;;;;;;;;;;;;;21.92;30.27;101845.25;5063561;28;19920;-44
2023/12/03 04:28:40;;;;;;;;;;;;;;;21.89;30.23;101849.13;5064005;28;19919;-44
2023/12/03 04:31:05;;;;;;;;;;;;;;;21.88;30.43;101849.31;5064541;28;19924;-44
2023/12/03 04:33:30;;;;;;;;;;;;;;;21.87;30.25;101847.59;5063410;28;19921;-46
2023/12/03 04:35:56;;;;;;;;;;;;;;;21.87;30.30;101850.31;5063895;28;19924;-46
2023/12/03 04:38:21;;;;;;;;;;;;;;;21.87;30.07;101856.56;5062957;28;19913;-46
2023/12/03 04:40:46;;;;;;;;;;;;;;;21.89;30.16;101857.25;5064214;28;20000;-47
2023/12/03 04:43:11;;;;;;;;;;;;;;;21.92;30.13;101864.22;5063396;28;19986;-47
2023/12/03 04:45:37;;;;;;;;;;;;;;;21.96;30.16;101862.84;5063851;28;19917;-48
2023/12/03 04:48:02;;;;;;;;;;;;;;;21.98;30.24;101857.28;5064156;28;19924;-45
2023/12/03 04:50:27;;;;;;;;;;;;;;;22.03;29.87;101857.63;5064267;28;19962;-46
2023/12/03 04:52:52;;;;;;;;;;;;;;;22.05;30.06;101861.03;5064348;28;19939;-48
2023/12/03 04:55:19;;;;;;;;;;;;;;;22.04;30.15;101868.28;5063630;28;19924;-48
2023/12/03 04:57:44;;;;;;;;;;;;;;;22.02;30.14;101864.91;5063124;28;19912;-49
2023/12/03 05:00:10;;;;;;;;;;;;;;;22.02;30.01;101864.06;5046310;28;19923;-50
2023/12/03 05:02:35;;;;;;;;;;;;;;;22.01;29.93;101868.63;5064176;28;20404;-48
2023/12/03 05:05:00;;;;;;;;;;;;;;;22.02;29.87;101869.47;5063076;28;19984;-50
2023/12/03 05:07:25;;;;;;;;;;;;;;;22.02;29.99;101875.72;5063988;28;19927;-48
2023/12/03 05:09:50;;;;;;;;;;;;;;;22.01;30.13;101865.91;5063497;28;19921;-47
2023/12/03 05:12:16;;;;;;;;;;;;;;;22.03;30.18;101868.44;5062513;28;19959;-52
2023/12/03 05:14:41;;;;;;;;;;;;;;;22.05;30.06;101871.84;5062775;28;19924;-52
2023/12/03 05:17:06;;;;;;;;;;;;;;;22.03;30.24;101873.88;5064058;28;20028;-50
2023/12/03 05:19:32;;;;;;;;;;;;;;;22.00;30.14;101874.19;5063885;28;19920;-50
2023/12/03 05:21:57;;;;;;;;;;;;;;;21.96;30.19;101870.97;5063893;28;20407;-51
2023/12/03 05:24:22;;;;;;;;;;;;;;;21.98;30.06;101877.06;5063197;28;19995;-49
2023/12/03 05:26:47;;;;;;;;;;;;;;;21.99;30.15;101876.06;5063922;28;19927;-52
2023/12/03 05:29:12;;;;;;;;;;;;;;;21.99;30.05;101873.34;5061726;28;19921;-48
2023/12/03 05:31:43;;;;;;;;;;;;;;;22.00;30.15;101871.47;5063811;28;19975;-48
2023/12/03 05:34:08;;;;;;;;;;;;;;;22.01;30.06;101874.03;5062791;28;19921;-49
2023/12/03 05:36:33;;;;;;;;;;;;;;;22.02;30.01;101874.88;5062662;28;19928;-51
2023/12/03 05:38:58;;;;;;;;;;;;;;;22.02;29.86;101891.13;5067437;28;19924;-51
2023/12/03 05:41:23;;;;;;;;;;;;;;;22.03;29.76;101895.53;5067614;28;19913;-48
2023/12/03 05:43:48;;;;;;;;;;;;;;;22.04;30.05;101899.94;5066857;28;20458;-51
2023/12/03 05:46:14;;;;;;;;;;;;;;;22.06;29.92;101895.22;5066647;28;19920;-53
2023/12/03 05:48:39;;;;;;;;;;;;;;;22.07;30.08;101905.03;5067551;28;19913;-52
2023/12/03 05:51:09;;;;;;;;;;;;;;;22.08;30.03;101904.84;5067415;28;19916;-49
2023/12/03 05:53:34;;;;;;;;;;;;;;;22.11;29.91;101900.97;5067026;28;20131;-50
2023/12/03 05:55:59;;;;;;;;;;;;;;;22.12;29.86;101898.13;5066554;28;19917;-48
2023/12/03 05:58:25;;;;;;;;;;;;;;;22.13;29.65;101899.84;5066590;28;19916;-47
2023/12/03 06:00:50;;;;;;;;;;;;;;;22.11;29.89;101899.09;5066197;28;20354;-47
2023/12/03 06:03:15;;;;;;;;;;;;;;;22.08;30.08;101898.59;5081201;28;19921;-46
2023/12/03 06:05:40;;;;;;;;;;;;;;;22.09;30.03;101900.28;5065205;28;19917;-47
2023/12/03 06:08:05;;;;;;;;;;;;;;;22.08;30.08;101898.59;5063152;28;19917;-48
2023/12/03 06:10:31;;;;;;;;;;;;;;;22.10;30.08;101904.69;5066874;28;19924;-47
2023/12/03 06:12:56;;;;;;;;;;;;;;;22.02;29.95;101901.97;5065711;28;19913;-45
2023/12/03 06:15:21;;;;;;;;;;;;;;;21.94;30.14;101906.34;5066221;28;19924;-48
2023/12/03 06:17:46;;;;;;;;;;;;;;;21.91;30.36;101908.53;5066487;28;19928;-47
2023/12/03 06:20:11;;;;;;;;;;;;;;;21.86;30.47;101910.88;5066822;28;19980;-45
2023/12/03 06:22:37;;;;;;;;;;;;;;;21.82;30.38;101913.06;5065940;28;19927;-45
2023/12/03 06:25:02;;;;;;;;;;;;;;;21.77;30.49;101912.72;5064638;28;19963;-45
2023/12/03 06:27:27;;;;;;;;;;;;;;;21.74;30.65;101910.31;5066317;28;19943;-46
2023/12/03 06:29:52;;;;;;;;;;;;;;;21.75;31.03;101913.88;5066901;28;19923;-46
2023/12/03 06:32:17;;;;;;;;;;;;;;;21.74;31.06;101909.47;5066357;28;19913;-45
2023/12/03 06:34:43;;;;;;;;;;;;;;;21.73;31.18;101913.19;5065230;28;19917;-50
2023/12/03 06:37:08;;;;;;;;;;;;;;;21.74;31.17;101913.03;5064927;28;20587;-50
2023/12/03 06:39:33;;;;;;;;;;;;;;;21.74;31.20;101909.47;5066218;28;19920;-49
2023/12/03 06:41:58;;;;;;;;;;;;;;;21.75;31.25;101909.34;5062968;28;20016;-49
2023/12/03 06:44:24;;;;;;;;;;;;;;;21.76;31.18;101916.44;5063795;28;20547;-48
2023/12/03 06:46:49;;;;;;;;;;;;;;;21.79;30.94;101912.53;5064932;28;20329;-48
2023/12/03 06:49:14;;;;;;;;;;;;;;;21.78;31.05;101914.41;5063529;28;19963;-49
2023/12/03 06:51:41;;;;;;;;;;;;;;;21.80;31.29;101920.50;5060986;28;20427;-50
2023/12/03 06:54:06;;;;;;;;;;;;;;;21.82;31.10;101918.47;5064893;28;19928;-47
2023/12/03 06:56:32;;;;;;;;;;;;;;;21.81;31.12;101918.66;5063191;28;20007;-50
2023/12/03 06:58:57;;;;;;;;;;;;;;;21.78;31.08;101929.81;5063455;28;19920;-48
2023/12/03 07:01:22;;;;;;;;;;;;;;;21.78;31.20;101929.81;5060378;28;19924;-49
2023/12/03 07:03:47;;;;;;;;;;;;;;;21.77;31.44;101928.09;5063551;28;19987;-47
2023/12/03 07:06:12;;;;;;;;;;;;;;;21.80;31.16;101935.91;5063539;28;19927;-48
2023/12/03 07:08:38;;;;;;;;;;;;;;;21.83;31.15;101935.56;5044867;28;19913;-50
2023/12/03 07:11:03;;;;;;;;;;;;;;;21.82;31.39;101937.44;5063530;28;20556;-47
2023/12/03 07:13:28;;;;;;;;;;;;;;;21.81;31.60;101940.31;5064319;28;19921;-48
2023/12/03 07:15:53;;;;;;;;;;;;;;;21.78;31.62;101940.63;5062256;28;19917;-46
2023/12/03 07:18:18;;;;;;;;;;;;;;;21.77;31.70;101947.06;5059677;28;19917;-47
2023/12/03 07:20:43;;;;;;;;;;;;;;;21.76;31.57;101948.06;5065105;28;19913;-48
2023/12/03 07:23:09;;;;;;;;;;;;;;;21.73;31.67;101951.94;5064914;28;19912;-48
2023/12/03 07:25:34;;;;;;;;;;;;;;;21.73;31.76;101957.34;5063969;28;19912;-47
2023/12/03 07:27:59;;;;;;;;;;;;;;;21.73;31.61;101968.19;5063565;28;19920;-48
2023/12/03 07:30:25;;;;;;;;;;;;;;;21.72;31.92;101966.50;5064726;28;19921;-47
2023/12/03 07:32:50;;;;;;;;;;;;;;;21.70;31.56;101971.22;5064539;28;20338;-52
2023/12/03 07:35:16;;;;;;;;;;;;;;;21.73;31.89;101972.75;5063948;28;19921;-46
2023/12/03 07:37:41;;;;;;;;;;;;;;;21.74;31.57;101972.59;5064904;28;19913;-50
2023/12/03 07:40:08;;;;;;;;;;;;;;;21.75;31.56;101974.31;5065035;28;19917;-48
2023/12/03 07:42:33;;;;;;;;;;;;;;;21.77;31.66;101980.38;5063661;28;20011;-48
2023/12/03 07:44:58;;;;;;;;;;;;;;;21.79;31.73;101977.50;5064071;28;19920;-47
2023/12/03 07:47:23;;;;;;;;;;;;;;;21.80;31.44;101971.09;5056618;28;19952;-49
2023/12/03 07:49:49;;;;;;;;;;;;;;;21.80;31.67;101966.53;5061467;28;19942;-46
2023/12/03 07:52:14;;;;;;;;;;;;;;;21.84;31.46;101969.78;5063005;28;20303;-49
2023/12/03 07:54:40;;;;;;;;;;;;;;;21.84;31.41;101969.78;5062649;28;19917;-48
2023/12/03 07:57:06;;;;;;;;;;;;;;;21.89;31.65;101973.69;5060669;28;20012;-45
2023/12/03 07:59:31;;;;;;;;;;;;;;;21.91;31.51;101973.50;5061545;28;19912;-48
2023/12/03 08:01:58;;;;;;;;;;;;;;;21.91;31.26;101970.81;5061865;28;19920;-47
2023/12/03 08:04:23;;;;;;;;;;;;;;;21.90;31.40;101986.19;5058752;28;20439;-45
2023/12/03 08:06:49;;;;;;;;;;;;;;;21.91;31.27;101985.19;5061139;28;19916;-49
2023/12/03 08:09:14;;;;;;;;;;;;;;;21.94;31.31;101978.59;5062560;28;20291;-49
2023/12/03 08:11:39;;;;;;;;;;;;;;;21.92;31.33;101981.50;5062216;28;19920;-49
2023/12/03 08:14:04;;;;;;;;;;;;;;;21.95;31.06;101978.44;5059341;28;19964;-51
2023/12/03 08:16:30;;;;;;;;;;;;;;;21.96;31.19;101985.56;5062785;28;20295;-48
2023/12/03 08:18:55;;;;;;;;;;;;;;;21.96;31.16;101993.69;5044169;28;19995;-49
2023/12/03 08:21:20;;;;;;;;;;;;;;;22.01;31.11;101990.50;5061743;28;19975;-50
2023/12/03 08:23:45;;;;;;;;;;;;;;;22.02;31.35;101986.75;5062641;28;20395;-50
2023/12/03 08:26:10;;;;;;;;;;;;;;;22.02;31.22;101986.75;5061583;28;20331;-48
2023/12/03 08:28:36;;;;;;;;;;;;;;;22.05;31.40;101988.31;5059293;28;19971;-51
2023/12/03 08:31:01;;;;;;;;;;;;;;;22.10;31.15;101988.66;5060249;28;19912;-49
2023/12/03 08:33:26;;;;;;;;;;;;;;;22.17;30.81;101989.72;5062531;28;19924;-48
2023/12/03 08:35:51;;;;;;;;;;;;;;;22.23;30.97;101980.09;5060615;28;19938;-48
2023/12/03 08:38:16;;;;;;;;;;;;;;;22.26;30.91;101985.16;5042960;28;19923;-47
2023/12/03 08:40:42;;;;;;;;;;;;;;;22.25;30.90;101991.59;5059995;28;19942;-50
2023/12/03 08:43:07;;;;;;;;;;;;;;;22.30;30.79;101991.97;5061749;28;19940;-47
2023/12/03 08:45:33;;;;;;;;;;;;;;;22.34;30.72;101990.63;5062030;28;19916;-47
2023/12/03 08:48:00;;;;;;;;;;;;;;;22.41;30.54;101997.06;5061621;28;19927;-45
2023/12/03 08:50:27;;;;;;;;;;;;;;;22.44;30.30;102000.31;5041656;28;19924;-49
2023/12/03 08:52:53;;;;;;;;;;;;;;;22.45;30.41;101998.44;5059494;28;19928;-50
2023/12/03 08:55:18;;;;;;;;;;;;;;;22.42;30.75;102006.91;5061857;28;19921;-47
2023/12/03 08:57:43;;;;;;;;;;;;;;;22.39;30.58;102005.38;5061119;28;19917;-48
2023/12/03 09:00:10;;;;;;;;;;;;;;;22.32;30.57;102007.03;5061581;28;20545;-49
2023/12/03 09:02:35;;;;;;;;;;;;;;;22.30;30.64;102002.78;5063379;28;19920;-45
2023/12/03 09:05:01;;;;;;;;;;;;;;;22.29;30.92;102007.38;5060253;28;19913;-46
2023/12/03 09:07:30;;;;;;;;;;;;;;;22.34;30.61;102005.00;5060660;28;19913;-46
2023/12/03 09:09:56;;;;;;;;;;;;;;;22.34;30.54;102010.44;5043490;28;19939;-51
2023/12/03 09:12:21;;;;;;;;;;;;;;;22.36;30.85;102013.00;5060147;28;20375;-48
2023/12/03 09:14:47;;;;;;;;;;;;;;;22.39;30.53;102010.81;5060166;28;19943;-44
2023/12/03 09:17:12;;;;;;;;;;;;;;;22.40;30.56;102012.50;5060708;28;19984;-48
2023/12/03 09:19:37;;;;;;;;;;;;;;;22.35;30.98;102012.16;5061997;28;19966;-44
2023/12/03 09:22:02;;;;;;;;;;;;;;;22.43;30.46;102014.88;5060767;28;19963;-46
2023/12/03 09:24:28;;;;;;;;;;;;;;;22.48;30.70;102008.97;5059769;28;20391;-45
2023/12/03 09:26:53;;;;;;;;;;;;;;;22.52;30.53;102010.31;5059870;28;19913;-46
2023/12/03 09:29:18;;;;;;;;;;;;;;;22.55;30.30;102012.69;5059014;28;19913;-50
2023/12/03 09:31:44;;;;;;;;;;;;;;;22.59;30.43;102013.19;5061487;28;19913;-48
2023/12/03 09:34:09;;;;;;;;;;;;;;;22.62;30.46;102018.31;5058200;28;19921;-45
2023/12/03 09:36:34;;;;;;;;;;;;;;;22.62;30.21;102013.72;5059272;28;19947;-44
2023/12/03 09:39:00;;;;;;;;;;;;;;;22.64;30.33;102013.53;5057658;28;19993;-46
2023/12/03 09:41:27;;;;;;;;;;;;;;;22.63;30.40;102017.28;5061609;28;19917;-48
2023/12/03 09:43:54;;;;;;;;;;;;;;;22.65;30.13;102007.97;5058663;28;19917;-47
2023/12/03 09:46:19;;;;;;;;;;;;;;;22.69;30.19;102012.06;5042496;28;19920;-48
2023/12/03 09:48:44;;;;;;;;;;;;;;;22.73;29.81;102009.03;5042631;28;20016;-46
2023/12/03 09:51:10;;;;;;;;;;;;;;;22.73;29.99;102007.16;5059727;28;20483;-46
2023/12/03 09:53:36;;;;;;;;;;;;;;;22.74;30.14;102013.41;5061733;28;19921;-45
2023/12/03 09:56:01;;;;;;;;;;;;;;;22.74;29.91;102008.84;5044292;28;19944;-48
2023/12/03 09:58:26;;;;;;;;;;;;;;;22.75;30.11;102020.53;5043328;28;19917;-46
2023/12/03 10:00:52;;;;;;;;;;;;;;;22.76;30.00;102014.94;5058528;28;19913;-47
2023/12/03 10:03:17;;;;;;;;;;;;;;;22.78;29.99;102012.06;5062058;28;19913;-45
2023/12/03 10:05:42;;;;;;;;;;;;;;;22.79;29.84;102011.03;5059797;28;19912;-46
2023/12/03 10:08:07;;;;;;;;;;;;;;;22.81;30.09;102014.41;5060176;28;19913;-46
2023/12/03 10:10:34;;;;;;;;;;;;;;;22.82;29.84;102016.16;5044678;28;19944;-48
2023/12/03 10:12:59;;;;;;;;;;;;;;;22.83;29.73;102013.25;5060136;28;19917;-45
2023/12/03 10:15:25;;;;;;;;;;;;;;;22.84;30.01;102019.50;5044136;28;19917;-47
2023/12/03 10:17:51;;;;;;;;;;;;;;;22.84;30.01;102017.66;5059626;28;19917;-45
2023/12/03 10:20:26;;;;;;;;;;;;;;;22.85;29.68;102011.25;5058866;28;19936;-48
2023/12/03 10:22:52;;;;;;;;;;;;;;;22.86;29.54;102006.66;5060362;28;19940;-45
2023/12/03 10:25:26;;;;;;;;;;;;;;;22.86;29.59;102004.78;5060735;28;20833;-48
2023/12/03 10:27:54;;;;;;;;;;;;;;;22.88;29.67;102000.03;5060183;28;19939;-45
2023/12/03 10:30:20;;;;;;;;;;;;;;;22.91;29.49;101997.03;5061506;28;19912;-45
2023/12/03 10:32:45;;;;;;;;;;;;;;;22.93;29.69;101999.56;5063680;28;19917;-45
2023/12/03 10:35:10;;;;;;;;;;;;;;;22.93;29.52;101997.69;5062170;28;19928;-46
2023/12/03 10:37:36;;;;;;;;;;;;;;;22.91;29.49;101996.19;5046750;28;19923;-44
2023/12/03 10:40:02;;;;;;;;;;;;;;;22.94;29.70;101995.84;5046563;28;20014;-45
2023/12/03 10:42:27;;;;;;;;;;;;;;;22.94;29.49;101988.56;5064770;28;19928;-45
2023/12/03 10:44:53;;;;;;;;;;;;;;;22.97;29.44;101990.06;5046080;28;19978;-47
2023/12/03 10:47:18;;;;;;;;;;;;;;;22.97;29.58;101994.66;5063734;28;20284;-45
2023/12/03 10:49:44;;;;;;;;;;;;;;;22.95;29.66;101981.25;5046952;28;19913;-44
2023/12/03 10:52:09;;;;;;;;;;;;;;;23.00;29.74;101983.47;5062672;28;19917;-44
2023/12/03 10:54:34;;;;;;;;;;;;;;;23.06;29.44;101982.78;5046589;28;20009;-45
2023/12/03 10:57:00;;;;;;;;;;;;;;;23.09;29.53;101985.16;5061226;28;19917;-44
2023/12/03 10:59:27;;;;;;;;;;;;;;;23.13;29.46;101978.38;5039855;28;19920;-43
2023/12/03 11:01:56;;;;;;;;;;;;;;;23.18;29.40;101974.09;5061886;28;20015;-44
2023/12/03 11:04:42;;;;;;;;;;;;;;;23.24;29.53;101978.03;5043614;28;20378;-44
2023/12/03 11:07:08;;;;;;;;;;;;;;;23.27;29.49;101974.94;5062091;28;19952;-47
2023/12/03 11:09:35;;;;;;;;;;;;;;;23.28;29.34;101975.78;5063211;28;19917;-46
2023/12/03 11:12:00;;;;;;;;;;;;;;;23.28;29.22;101975.78;5062925;28;19976;-46
2023/12/03 11:14:25;;;;;;;;;;;;;;;23.29;29.29;101975.63;5063611;28;19999;-44
2023/12/03 11:17:09;;;;;;;;;;;;;;;23.27;29.93;101977.66;5061116;28;19919;-46
2023/12/03 11:19:34;;;;;;;;;;;;;;;23.21;30.34;101962.09;5061428;28;19920;-46
2023/12/03 11:22:02;;;;;;;;;;;;;;;23.14;30.40;101961.91;5046560;28;19981;-44
2023/12/03 11:24:36;;;;;;;;;;;;;;;23.07;30.60;101966.34;5061443;28;19917;-44
2023/12/03 11:27:02;;;;;;;;;;;;;;;23.06;30.72;101963.78;5061895;28;19952;-43
2023/12/03 11:29:48;;;;;;;;;;;;;;;23.04;30.46;101961.25;5061610;28;20312;-46
2023/12/03 11:32:13;;;;;;;;;;;;;;;23.03;30.96;101964.16;5062053;28;19913;-45
2023/12/03 11:34:39;;;;;;;;;;;;;;;23.02;30.99;101951.56;5059946;28;20043;-44
2023/12/03 11:37:04;;;;;;;;;;;;;;;22.94;30.96;101947.88;5062177;28;19960;-44
2023/12/03 11:39:29;;;;;;;;;;;;;;;22.88;31.17;101944.94;5042023;28;20003;-46
2023/12/03 11:41:57;;;;;;;;;;;;;;;22.84;31.16;101949.84;5062050;28;19924;-44
2023/12/03 11:44:25;;;;;;;;;;;;;;;22.80;31.18;101943.09;5060727;28;20567;-45
2023/12/03 11:46:51;;;;;;;;;;;;;;;22.79;31.55;101944.09;5059158;28;19955;-43
2023/12/03 11:49:17;;;;;;;;;;;;;;;22.76;31.71;101936.31;5077920;28;20410;-43
2023/12/03 11:51:44;;;;;;;;;;;;;;;22.74;31.75;101938.34;5063549;28;19912;-44
2023/12/03 11:54:09;;;;;;;;;;;;;;;22.73;31.42;101941.25;5063198;28;19920;-44
2023/12/03 11:56:35;;;;;;;;;;;;;;;22.70;31.75;101939.69;5045115;28;19943;-44
2023/12/03 11:59:00;;;;;;;;;;;;;;;22.67;31.70;101934.59;5043473;28;19917;-44
2023/12/03 12:01:25;;;;;;;;;;;;;;;22.65;31.83;101940.22;5062002;28;20007;-51
2023/12/03 12:03:50;;;;;;;;;;;;;;;22.67;31.79;101937.31;5060603;28;19924;-49
2023/12/03 12:06:24;;;;;;;;;;;;;;;22.67;31.71;101929.19;5062927;28;19917;-48
2023/12/03 12:08:49;;;;;;;;;;;;;;;22.67;31.57;101929.19;5061338;28;19913;-52
2023/12/03 12:11:14;;;;;;;;;;;;;;;22.67;31.71;101921.91;5062256;28;19913;-46
2023/12/03 12:13:39;;;;;;;;;;;;;;;22.70;31.55;101926.16;5061042;28;19920;-47
2023/12/03 12:16:05;;;;;;;;;;;;;;;22.68;31.43;101920.91;5061861;28;19917;-46
2023/12/03 12:18:30;;;;;;;;;;;;;;;22.71;31.86;101915.13;5062265;28;20003;-47
2023/12/03 12:21:10;;;;;;;;;;;;;;;22.75;31.37;101922.91;5058137;28;19927;-45
2023/12/03 12:23:35;;;;;;;;;;;;;;;22.77;31.58;101920.88;5062022;28;19947;-45
2023/12/03 12:26:00;;;;;;;;;;;;;;;22.78;31.66;101922.59;5061194;28;19916;-49
2023/12/03 12:28:26;;;;;;;;;;;;;;;22.80;31.51;101918.69;5043442;28;20551;-49